sensor_id;sensor_type;location;lat;lon;timestamp;P1;durP1;ratioP1;P2;durP2;ratioP2
32242;SDS011;18731;42.830;24.390;2023-01-16T02:58:04;8.93;;;5.22;;
32242;SDS011;18731;42.830;24.390;2023-01-16T03:00:33;18.13;;;7.63;;
32242;SDS011;18731;42.830;24.390;2023-01-16T03:02:59;15.60;;;7.50;;
32242;SDS011;18731;42.830;24.390;2023-01-16T03:05:25;10.88;;;6.43;;
32242;SDS011;18731;42.830;24.390;2023-01-16T03:22:30;30.45;;;14.65;;
32242;SDS011;18731;42.830;24.390;2023-01-16T03:31:03;38.00;;;19.13;;
32242;SDS011;18731;42.830;24.390;2023-01-16T03:36:32;29.65;;;13.30;;
32242;SDS011;18731;42.830;24.390;2023-01-16T03:39:06;11.13;;;6.00;;
32242;SDS011;18731;42.830;24.390;2023-01-16T03:41:34;13.23;;;6.55;;
32242;SDS011;18731;42.830;24.390;2023-01-16T03:44:04;16.02;;;7.78;;
32242;SDS011;18731;42.830;24.390;2023-01-16T03:46:39;31.33;;;17.52;;
32242;SDS011;18731;42.830;24.390;2023-01-16T03:49:14;26.98;;;16.00;;
32242;SDS011;18731;42.830;24.390;2023-01-16T03:51:44;26.42;;;15.88;;
32242;SDS011;18731;42.830;24.390;2023-01-16T03:54:21;24.20;;;14.20;;
32242;SDS011;18731;42.830;24.390;2023-01-16T03:59:47;25.27;;;12.60;;
32242;SDS011;18731;42.830;24.390;2023-01-16T04:02:31;39.10;;;18.52;;
32242;SDS011;18731;42.830;24.390;2023-01-16T04:05:18;36.53;;;17.95;;
32242;SDS011;18731;42.830;24.390;2023-01-16T04:10:35;25.17;;;12.63;;
32242;SDS011;18731;42.830;24.390;2023-01-16T04:13:14;18.35;;;9.88;;
32242;SDS011;18731;42.830;24.390;2023-01-16T04:15:52;18.98;;;9.23;;
32242;SDS011;18731;42.830;24.390;2023-01-16T04:18:21;16.65;;;8.85;;
32242;SDS011;18731;42.830;24.390;2023-01-16T04:20:52;13.18;;;6.70;;
32242;SDS011;18731;42.830;24.390;2023-01-16T04:23:18;12.05;;;7.13;;
32242;SDS011;18731;42.830;24.390;2023-01-16T04:25:44;13.52;;;6.05;;
32242;SDS011;18731;42.830;24.390;2023-01-16T04:28:10;11.40;;;6.00;;
32242;SDS011;18731;42.830;24.390;2023-01-16T04:30:36;11.50;;;6.82;;
32242;SDS011;18731;42.830;24.390;2023-01-16T04:33:02;10.05;;;6.20;;
32242;SDS011;18731;42.830;24.390;2023-01-16T04:35:29;12.43;;;5.88;;
32242;SDS011;18731;42.830;24.390;2023-01-16T04:37:56;13.93;;;6.63;;
32242;SDS011;18731;42.830;24.390;2023-01-16T04:40:22;12.43;;;6.70;;
32242;SDS011;18731;42.830;24.390;2023-01-16T04:42:48;21.13;;;9.75;;
32242;SDS011;18731;42.830;24.390;2023-01-16T04:45:13;15.63;;;8.38;;
32242;SDS011;18731;42.830;24.390;2023-01-16T04:47:39;28.88;;;14.70;;
32242;SDS011;18731;42.830;24.390;2023-01-16T04:50:05;20.27;;;10.07;;
32242;SDS011;18731;42.830;24.390;2023-01-16T04:52:31;20.90;;;10.73;;
32242;SDS011;18731;42.830;24.390;2023-01-16T04:54:57;18.48;;;10.75;;
32242;SDS011;18731;42.830;24.390;2023-01-16T04:57:23;14.52;;;8.00;;
32242;SDS011;18731;42.830;24.390;2023-01-16T04:59:48;14.00;;;8.02;;
32242;SDS011;18731;42.830;24.390;2023-01-16T05:02:14;16.48;;;7.63;;
32242;SDS011;18731;42.830;24.390;2023-01-16T05:04:39;14.32;;;7.93;;
32242;SDS011;18731;42.830;24.390;2023-01-16T05:07:05;51.90;;;23.63;;
32242;SDS011;18731;42.830;24.390;2023-01-16T05:09:30;42.88;;;19.23;;
32242;SDS011;18731;42.830;24.390;2023-01-16T05:11:56;74.50;;;31.88;;
32242;SDS011;18731;42.830;24.390;2023-01-16T05:14:22;76.85;;;32.28;;
32242;SDS011;18731;42.830;24.390;2023-01-16T05:16:47;54.63;;;23.48;;
32242;SDS011;18731;42.830;24.390;2023-01-16T05:19:13;31.45;;;14.85;;
32242;SDS011;18731;42.830;24.390;2023-01-16T05:21:38;17.25;;;9.30;;
32242;SDS011;18731;42.830;24.390;2023-01-16T05:24:04;19.85;;;9.93;;
32242;SDS011;18731;42.830;24.390;2023-01-16T05:26:30;18.40;;;9.70;;
32242;SDS011;18731;42.830;24.390;2023-01-16T05:28:56;18.98;;;9.95;;
32242;SDS011;18731;42.830;24.390;2023-01-16T05:31:22;19.85;;;9.40;;
32242;SDS011;18731;42.830;24.390;2023-01-16T05:33:48;18.48;;;10.05;;
32242;SDS011;18731;42.830;24.390;2023-01-16T05:36:14;41.45;;;17.83;;
32242;SDS011;18731;42.830;24.390;2023-01-16T05:38:39;66.63;;;27.98;;
32242;SDS011;18731;42.830;24.390;2023-01-16T05:41:05;56.92;;;24.98;;
32242;SDS011;18731;42.830;24.390;2023-01-16T05:43:31;69.95;;;28.45;;
32242;SDS011;18731;42.830;24.390;2023-01-16T05:45:56;86.50;;;38.00;;
32242;SDS011;18731;42.830;24.390;2023-01-16T05:48:22;84.00;;;34.55;;
32242;SDS011;18731;42.830;24.390;2023-01-16T05:50:49;77.43;;;31.90;;
32242;SDS011;18731;42.830;24.390;2023-01-16T05:53:15;154.68;;;71.50;;
32242;SDS011;18731;42.830;24.390;2023-01-16T05:55:44;132.80;;;58.03;;
32242;SDS011;18731;42.830;24.390;2023-01-16T05:58:11;102.63;;;49.58;;
32242;SDS011;18731;42.830;24.390;2023-01-16T06:00:38;43.15;;;20.00;;
32242;SDS011;18731;42.830;24.390;2023-01-16T06:03:05;43.80;;;21.33;;
32242;SDS011;18731;42.830;24.390;2023-01-16T06:05:31;55.53;;;27.88;;
32242;SDS011;18731;42.830;24.390;2023-01-16T06:07:58;74.55;;;35.33;;
32242;SDS011;18731;42.830;24.390;2023-01-16T06:10:24;99.70;;;48.35;;
32242;SDS011;18731;42.830;24.390;2023-01-16T06:12:50;110.68;;;45.53;;
32242;SDS011;18731;42.830;24.390;2023-01-16T06:15:16;44.05;;;23.17;;
32242;SDS011;18731;42.830;24.390;2023-01-16T06:17:42;41.75;;;20.73;;
32242;SDS011;18731;42.830;24.390;2023-01-16T06:20:08;33.42;;;16.92;;
32242;SDS011;18731;42.830;24.390;2023-01-16T06:22:35;32.30;;;17.15;;
32242;SDS011;18731;42.830;24.390;2023-01-16T06:25:00;32.30;;;15.85;;
32242;SDS011;18731;42.830;24.390;2023-01-16T06:27:26;30.60;;;16.42;;
32242;SDS011;18731;42.830;24.390;2023-01-16T06:29:52;30.58;;;14.30;;
32242;SDS011;18731;42.830;24.390;2023-01-16T06:32:17;21.20;;;11.55;;
32242;SDS011;18731;42.830;24.390;2023-01-16T06:34:43;16.15;;;8.75;;
32242;SDS011;18731;42.830;24.390;2023-01-16T06:37:09;16.63;;;8.82;;
32242;SDS011;18731;42.830;24.390;2023-01-16T06:39:36;27.58;;;15.23;;
32242;SDS011;18731;42.830;24.390;2023-01-16T06:42:01;30.23;;;15.32;;
32242;SDS011;18731;42.830;24.390;2023-01-16T06:44:32;44.25;;;21.98;;
32242;SDS011;18731;42.830;24.390;2023-01-16T06:46:58;68.65;;;33.70;;
32242;SDS011;18731;42.830;24.390;2023-01-16T06:49:24;26.90;;;14.45;;
32242;SDS011;18731;42.830;24.390;2023-01-16T06:51:50;29.42;;;13.98;;
32242;SDS011;18731;42.830;24.390;2023-01-16T06:54:15;22.38;;;11.38;;
32242;SDS011;18731;42.830;24.390;2023-01-16T06:56:41;14.25;;;8.48;;
32242;SDS011;18731;42.830;24.390;2023-01-16T06:59:06;16.15;;;8.82;;
32242;SDS011;18731;42.830;24.390;2023-01-16T07:01:32;15.38;;;8.68;;
32242;SDS011;18731;42.830;24.390;2023-01-16T07:03:58;16.67;;;9.73;;
32242;SDS011;18731;42.830;24.390;2023-01-16T07:06:23;34.35;;;19.27;;
32242;SDS011;18731;42.830;24.390;2023-01-16T07:08:49;36.97;;;19.08;;
32242;SDS011;18731;42.830;24.390;2023-01-16T07:11:16;32.53;;;17.20;;
32242;SDS011;18731;42.830;24.390;2023-01-16T07:13:42;33.95;;;17.30;;
32242;SDS011;18731;42.830;24.390;2023-01-16T07:16:09;33.42;;;16.95;;
32242;SDS011;18731;42.830;24.390;2023-01-16T07:18:55;30.88;;;15.30;;
32242;SDS011;18731;42.830;24.390;2023-01-16T07:21:40;31.38;;;15.20;;
32242;SDS011;18731;42.830;24.390;2023-01-16T07:24:26;31.33;;;16.10;;
32242;SDS011;18731;42.830;24.390;2023-01-16T07:26:57;34.15;;;17.20;;
32242;SDS011;18731;42.830;24.390;2023-01-16T07:29:26;25.90;;;13.90;;
32242;SDS011;18731;42.830;24.390;2023-01-16T07:31:54;29.35;;;14.88;;
32242;SDS011;18731;42.830;24.390;2023-01-16T07:34:21;30.17;;;16.42;;
32242;SDS011;18731;42.830;24.390;2023-01-16T07:36:47;28.17;;;15.43;;
32242;SDS011;18731;42.830;24.390;2023-01-16T07:39:13;24.92;;;13.38;;
32242;SDS011;18731;42.830;24.390;2023-01-16T07:41:39;47.83;;;23.48;;
32242;SDS011;18731;42.830;24.390;2023-01-16T07:44:04;29.98;;;15.82;;
32242;SDS011;18731;42.830;24.390;2023-01-16T07:46:31;48.35;;;24.15;;
32242;SDS011;18731;42.830;24.390;2023-01-16T07:48:57;35.65;;;19.80;;
32242;SDS011;18731;42.830;24.390;2023-01-16T07:51:23;52.28;;;28.23;;
32242;SDS011;18731;42.830;24.390;2023-01-16T07:53:49;31.92;;;18.08;;
32242;SDS011;18731;42.830;24.390;2023-01-16T07:56:15;24.48;;;14.48;;
32242;SDS011;18731;42.830;24.390;2023-01-16T07:58:41;28.67;;;18.48;;
32242;SDS011;18731;42.830;24.390;2023-01-16T08:01:08;22.30;;;14.82;;
32242;SDS011;18731;42.830;24.390;2023-01-16T08:03:35;10.55;;;6.97;;
32242;SDS011;18731;42.830;24.390;2023-01-16T08:06:02;12.23;;;7.60;;
32242;SDS011;18731;42.830;24.390;2023-01-16T08:08:28;18.50;;;12.65;;
32242;SDS011;18731;42.830;24.390;2023-01-16T08:10:54;24.88;;;15.18;;
32242;SDS011;18731;42.830;24.390;2023-01-16T08:13:22;28.35;;;18.38;;
32242;SDS011;18731;42.830;24.390;2023-01-16T08:15:48;14.73;;;9.25;;
32242;SDS011;18731;42.830;24.390;2023-01-16T08:18:15;23.60;;;10.98;;
32242;SDS011;18731;42.830;24.390;2023-01-16T08:20:45;22.85;;;11.98;;
32242;SDS011;18731;42.830;24.390;2023-01-16T08:23:11;17.80;;;9.90;;
32242;SDS011;18731;42.830;24.390;2023-01-16T08:25:37;13.57;;;7.30;;
32242;SDS011;18731;42.830;24.390;2023-01-16T08:28:04;20.92;;;12.18;;
32242;SDS011;18731;42.830;24.390;2023-01-16T08:30:30;67.97;;;26.05;;
32242;SDS011;18731;42.830;24.390;2023-01-16T08:32:57;29.15;;;14.40;;
32242;SDS011;18731;42.830;24.390;2023-01-16T08:35:24;13.52;;;8.27;;
32242;SDS011;18731;42.830;24.390;2023-01-16T08:37:49;13.15;;;7.57;;
32242;SDS011;18731;42.830;24.390;2023-01-16T08:40:16;12.90;;;7.15;;
32242;SDS011;18731;42.830;24.390;2023-01-16T08:42:42;9.82;;;5.97;;
32242;SDS011;18731;42.830;24.390;2023-01-16T08:45:27;8.63;;;5.97;;
32242;SDS011;18731;42.830;24.390;2023-01-16T08:48:11;10.10;;;6.28;;
32242;SDS011;18731;42.830;24.390;2023-01-16T08:50:59;5.30;;;3.50;;
32242;SDS011;18731;42.830;24.390;2023-01-16T08:53:43;4.38;;;2.55;;
32242;SDS011;18731;42.830;24.390;2023-01-16T08:56:09;4.55;;;2.38;;
32242;SDS011;18731;42.830;24.390;2023-01-16T08:58:35;5.82;;;3.95;;
32242;SDS011;18731;42.830;24.390;2023-01-16T09:01:00;5.57;;;3.85;;
32242;SDS011;18731;42.830;24.390;2023-01-16T09:03:26;9.90;;;6.13;;
32242;SDS011;18731;42.830;24.390;2023-01-16T09:05:51;15.25;;;8.43;;
32242;SDS011;18731;42.830;24.390;2023-01-16T09:08:17;12.98;;;7.90;;
32242;SDS011;18731;42.830;24.390;2023-01-16T09:10:43;16.90;;;10.52;;
32242;SDS011;18731;42.830;24.390;2023-01-16T09:13:28;17.60;;;9.80;;
32242;SDS011;18731;42.830;24.390;2023-01-16T09:16:12;18.88;;;9.00;;
32242;SDS011;18731;42.830;24.390;2023-01-16T09:18:38;18.27;;;10.30;;
32242;SDS011;18731;42.830;24.390;2023-01-16T09:21:03;16.83;;;9.50;;
32242;SDS011;18731;42.830;24.390;2023-01-16T09:23:29;16.63;;;9.68;;
32242;SDS011;18731;42.830;24.390;2023-01-16T09:25:54;15.40;;;8.63;;
32242;SDS011;18731;42.830;24.390;2023-01-16T09:28:20;18.95;;;11.13;;
32242;SDS011;18731;42.830;24.390;2023-01-16T09:30:45;22.05;;;12.07;;
32242;SDS011;18731;42.830;24.390;2023-01-16T09:33:11;21.33;;;11.65;;
32242;SDS011;18731;42.830;24.390;2023-01-16T09:35:36;20.83;;;10.82;;
32242;SDS011;18731;42.830;24.390;2023-01-16T09:38:02;10.73;;;6.40;;
32242;SDS011;18731;42.830;24.390;2023-01-16T09:40:28;20.02;;;12.07;;
32242;SDS011;18731;42.830;24.390;2023-01-16T09:43:40;9.30;;;5.78;;
32242;SDS011;18731;42.830;24.390;2023-01-16T09:46:08;6.80;;;3.83;;
32242;SDS011;18731;42.830;24.390;2023-01-16T09:51:13;4.93;;;3.13;;
32242;SDS011;18731;42.830;24.390;2023-01-16T09:53:51;4.40;;;3.15;;
32242;SDS011;18731;42.830;24.390;2023-01-16T09:56:41;5.18;;;3.58;;
32242;SDS011;18731;42.830;24.390;2023-01-16T09:59:31;6.78;;;4.10;;
32242;SDS011;18731;42.830;24.390;2023-01-16T10:04:37;4.78;;;3.45;;
32242;SDS011;18731;42.830;24.390;2023-01-16T10:12:21;4.97;;;2.83;;
32242;SDS011;18731;42.830;24.390;2023-01-16T10:22:52;5.32;;;3.55;;
32242;SDS011;18731;42.830;24.390;2023-01-16T10:25:31;10.45;;;6.25;;
32242;SDS011;18731;42.830;24.390;2023-01-16T10:30:54;16.10;;;10.23;;
32242;SDS011;18731;42.830;24.390;2023-01-16T10:33:28;15.32;;;9.60;;
32242;SDS011;18731;42.830;24.390;2023-01-16T10:36:00;17.63;;;9.95;;
32242;SDS011;18731;42.830;24.390;2023-01-16T10:38:41;17.30;;;9.00;;
32242;SDS011;18731;42.830;24.390;2023-01-16T10:41:19;12.30;;;7.78;;
32242;SDS011;18731;42.830;24.390;2023-01-16T10:44:11;12.23;;;7.80;;
32242;SDS011;18731;42.830;24.390;2023-01-16T10:47:00;17.38;;;8.95;;
32242;SDS011;18731;42.830;24.390;2023-01-16T10:49:46;34.58;;;14.77;;
32242;SDS011;18731;42.830;24.390;2023-01-16T10:52:11;15.18;;;9.23;;
32242;SDS011;18731;42.830;24.390;2023-01-16T10:54:37;14.23;;;7.80;;
32242;SDS011;18731;42.830;24.390;2023-01-16T10:57:08;17.10;;;7.95;;
32242;SDS011;18731;42.830;24.390;2023-01-16T10:59:40;11.70;;;7.72;;
32242;SDS011;18731;42.830;24.390;2023-01-16T11:02:44;14.43;;;7.93;;
32242;SDS011;18731;42.830;24.390;2023-01-16T11:05:23;14.20;;;8.38;;
32242;SDS011;18731;42.830;24.390;2023-01-16T11:08:13;15.93;;;8.90;;
32242;SDS011;18731;42.830;24.390;2023-01-16T11:10:42;16.05;;;10.38;;
32242;SDS011;18731;42.830;24.390;2023-01-16T11:16:49;12.38;;;8.60;;
32242;SDS011;18731;42.830;24.390;2023-01-16T11:19:18;14.18;;;8.27;;
32242;SDS011;18731;42.830;24.390;2023-01-16T11:21:50;14.43;;;8.00;;
32242;SDS011;18731;42.830;24.390;2023-01-16T11:24:30;13.80;;;7.20;;
32242;SDS011;18731;42.830;24.390;2023-01-16T11:26:58;9.13;;;5.47;;
32242;SDS011;18731;42.830;24.390;2023-01-16T11:29:25;7.65;;;5.63;;
32242;SDS011;18731;42.830;24.390;2023-01-16T11:32:00;8.02;;;5.28;;
32242;SDS011;18731;42.830;24.390;2023-01-16T11:34:31;7.60;;;5.32;;
32242;SDS011;18731;42.830;24.390;2023-01-16T11:36:58;9.98;;;6.03;;
32242;SDS011;18731;42.830;24.390;2023-01-16T11:39:28;9.70;;;6.18;;
32242;SDS011;18731;42.830;24.390;2023-01-16T11:41:56;10.68;;;6.78;;
32242;SDS011;18731;42.830;24.390;2023-01-16T11:44:28;9.90;;;7.07;;
32242;SDS011;18731;42.830;24.390;2023-01-16T11:47:17;10.18;;;6.13;;
32242;SDS011;18731;42.830;24.390;2023-01-16T11:49:51;11.95;;;8.35;;
32242;SDS011;18731;42.830;24.390;2023-01-16T11:52:19;10.95;;;7.13;;
32242;SDS011;18731;42.830;24.390;2023-01-16T11:54:53;11.93;;;7.07;;
32242;SDS011;18731;42.830;24.390;2023-01-16T12:08:37;14.05;;;7.38;;
32242;SDS011;18731;42.830;24.390;2023-01-16T12:39:40;5.93;;;4.40;;
32242;SDS011;18731;42.830;24.390;2023-01-16T12:48:12;4.93;;;3.53;;
32242;SDS011;18731;42.830;24.390;2023-01-16T12:58:41;7.43;;;5.00;;
32242;SDS011;18731;42.830;24.390;2023-01-16T13:01:12;8.00;;;5.32;;
32242;SDS011;18731;42.830;24.390;2023-01-16T13:03:47;7.35;;;5.03;;
32242;SDS011;18731;42.830;24.390;2023-01-16T13:06:21;11.65;;;5.05;;
32242;SDS011;18731;42.830;24.390;2023-01-16T13:09:11;8.73;;;5.45;;
32242;SDS011;18731;42.830;24.390;2023-01-16T13:12:01;11.68;;;7.20;;
32242;SDS011;18731;42.830;24.390;2023-01-16T13:14:54;14.48;;;7.97;;
32242;SDS011;18731;42.830;24.390;2023-01-16T13:17:25;13.80;;;7.30;;
32242;SDS011;18731;42.830;24.390;2023-01-16T13:20:01;14.20;;;7.97;;
32242;SDS011;18731;42.830;24.390;2023-01-16T13:22:34;23.48;;;10.52;;
32242;SDS011;18731;42.830;24.390;2023-01-16T13:25:17;12.57;;;7.00;;
32242;SDS011;18731;42.830;24.390;2023-01-16T13:27:47;9.57;;;5.32;;
32242;SDS011;18731;42.830;24.390;2023-01-16T13:30:19;11.98;;;7.00;;
32242;SDS011;18731;42.830;24.390;2023-01-16T13:33:06;15.13;;;6.40;;
32242;SDS011;18731;42.830;24.390;2023-01-16T13:35:53;11.95;;;7.95;;
32242;SDS011;18731;42.830;24.390;2023-01-16T13:41:16;10.55;;;6.80;;
32242;SDS011;18731;42.830;24.390;2023-01-16T13:43:54;12.77;;;7.28;;
32242;SDS011;18731;42.830;24.390;2023-01-16T13:46:43;6.78;;;4.82;;
32242;SDS011;18731;42.830;24.390;2023-01-16T13:49:18;8.55;;;6.20;;
32242;SDS011;18731;42.830;24.390;2023-01-16T13:51:47;8.57;;;5.47;;
32242;SDS011;18731;42.830;24.390;2023-01-16T13:54:17;9.85;;;6.30;;
32242;SDS011;18731;42.830;24.390;2023-01-16T13:56:56;9.95;;;6.40;;
32242;SDS011;18731;42.830;24.390;2023-01-16T13:59:28;9.68;;;6.28;;
32242;SDS011;18731;42.830;24.390;2023-01-16T14:02:22;16.60;;;7.05;;
32242;SDS011;18731;42.830;24.390;2023-01-16T14:07:50;18.42;;;9.20;;
32242;SDS011;18731;42.830;24.390;2023-01-16T14:10:46;19.90;;;9.60;;
32242;SDS011;18731;42.830;24.390;2023-01-16T14:13:36;9.77;;;6.90;;
32242;SDS011;18731;42.830;24.390;2023-01-16T14:21:24;10.35;;;6.22;;
32242;SDS011;18731;42.830;24.390;2023-01-16T14:23:53;8.10;;;5.40;;
32242;SDS011;18731;42.830;24.390;2023-01-16T14:29:03;11.20;;;6.15;;
32242;SDS011;18731;42.830;24.390;2023-01-16T14:31:39;7.03;;;4.72;;
32242;SDS011;18731;42.830;24.390;2023-01-16T14:34:16;10.02;;;6.53;;
32242;SDS011;18731;42.830;24.390;2023-01-16T14:36:47;12.38;;;7.78;;
32242;SDS011;18731;42.830;24.390;2023-01-16T14:39:30;19.80;;;7.82;;
32242;SDS011;18731;42.830;24.390;2023-01-16T14:41:59;26.65;;;13.93;;
32242;SDS011;18731;42.830;24.390;2023-01-16T14:53:52;8.23;;;5.95;;
32242;SDS011;18731;42.830;24.390;2023-01-16T14:56:44;16.85;;;10.18;;
32242;SDS011;18731;42.830;24.390;2023-01-16T14:59:33;11.02;;;6.82;;
32242;SDS011;18731;42.830;24.390;2023-01-16T15:07:42;9.48;;;6.30;;
32242;SDS011;18731;42.830;24.390;2023-01-16T15:10:36;16.08;;;7.97;;
32242;SDS011;18731;42.830;24.390;2023-01-16T15:16:27;24.55;;;12.98;;
32242;SDS011;18731;42.830;24.390;2023-01-16T15:19:17;26.33;;;14.13;;
32242;SDS011;18731;42.830;24.390;2023-01-16T15:22:35;20.08;;;10.55;;
32242;SDS011;18731;42.830;24.390;2023-01-16T15:31:45;10.07;;;6.85;;
32242;SDS011;18731;42.830;24.390;2023-01-16T15:34:06;13.60;;;7.88;;
32242;SDS011;18731;42.830;24.390;2023-01-16T15:37:13;11.85;;;7.50;;
32242;SDS011;18731;42.830;24.390;2023-01-16T15:39:40;37.17;;;21.40;;
32242;SDS011;18731;42.830;24.390;2023-01-16T15:45:01;24.48;;;13.90;;
32242;SDS011;18731;42.830;24.390;2023-01-16T15:53:17;19.40;;;9.55;;
32242;SDS011;18731;42.830;24.390;2023-01-16T15:55:45;14.45;;;8.45;;
32242;SDS011;18731;42.830;24.390;2023-01-16T15:58:20;16.00;;;9.40;;
32242;SDS011;18731;42.830;24.390;2023-01-16T16:00:55;28.15;;;14.95;;
32242;SDS011;18731;42.830;24.390;2023-01-16T16:03:30;33.17;;;17.42;;
32242;SDS011;18731;42.830;24.390;2023-01-16T16:06:03;48.25;;;25.63;;
32242;SDS011;18731;42.830;24.390;2023-01-16T16:08:32;49.72;;;25.30;;
32242;SDS011;18731;42.830;24.390;2023-01-16T16:11:03;40.08;;;22.00;;
32242;SDS011;18731;42.830;24.390;2023-01-16T16:13:50;23.77;;;13.70;;
32242;SDS011;18731;42.830;24.390;2023-01-16T16:16:19;32.80;;;18.38;;
32242;SDS011;18731;42.830;24.390;2023-01-16T16:19:05;22.33;;;11.90;;
32242;SDS011;18731;42.830;24.390;2023-01-16T16:21:42;26.08;;;14.82;;
32242;SDS011;18731;42.830;24.390;2023-01-16T16:24:32;25.70;;;14.82;;
32242;SDS011;18731;42.830;24.390;2023-01-16T16:27:04;32.92;;;17.42;;
32242;SDS011;18731;42.830;24.390;2023-01-16T16:29:31;19.48;;;12.68;;
32242;SDS011;18731;42.830;24.390;2023-01-16T16:32:01;63.95;;;29.27;;
32242;SDS011;18731;42.830;24.390;2023-01-16T16:34:28;26.25;;;15.55;;
32242;SDS011;18731;42.830;24.390;2023-01-16T16:36:59;16.73;;;9.43;;
32242;SDS011;18731;42.830;24.390;2023-01-16T16:41:59;15.45;;;9.48;;
32242;SDS011;18731;42.830;24.390;2023-01-16T16:44:44;12.80;;;6.75;;
32242;SDS011;18731;42.830;24.390;2023-01-16T16:47:24;16.48;;;9.90;;
32242;SDS011;18731;42.830;24.390;2023-01-16T16:49:52;15.52;;;8.90;;
32242;SDS011;18731;42.830;24.390;2023-01-16T16:54:55;14.85;;;8.93;;
32242;SDS011;18731;42.830;24.390;2023-01-16T16:57:23;14.25;;;8.50;;
32242;SDS011;18731;42.830;24.390;2023-01-16T16:59:52;15.75;;;10.02;;
32242;SDS011;18731;42.830;24.390;2023-01-16T17:02:20;21.08;;;12.68;;
32242;SDS011;18731;42.830;24.390;2023-01-16T17:04:47;14.85;;;9.68;;
32242;SDS011;18731;42.830;24.390;2023-01-16T17:07:12;16.83;;;10.85;;
32242;SDS011;18731;42.830;24.390;2023-01-16T17:09:38;18.35;;;11.65;;
32242;SDS011;18731;42.830;24.390;2023-01-16T17:12:15;28.58;;;16.33;;
32242;SDS011;18731;42.830;24.390;2023-01-16T17:14:42;25.10;;;15.05;;
32242;SDS011;18731;42.830;24.390;2023-01-16T17:17:11;17.05;;;10.45;;
32242;SDS011;18731;42.830;24.390;2023-01-16T17:19:42;40.05;;;21.20;;
32242;SDS011;18731;42.830;24.390;2023-01-16T17:22:08;13.68;;;8.85;;
32242;SDS011;18731;42.830;24.390;2023-01-16T17:24:35;49.97;;;26.50;;
32242;SDS011;18731;42.830;24.390;2023-01-16T17:27:02;19.02;;;11.27;;
32242;SDS011;18731;42.830;24.390;2023-01-16T17:29:32;43.40;;;21.75;;
32242;SDS011;18731;42.830;24.390;2023-01-16T17:31:59;19.80;;;12.55;;
32242;SDS011;18731;42.830;24.390;2023-01-16T17:34:30;28.60;;;15.98;;
32242;SDS011;18731;42.830;24.390;2023-01-16T17:36:57;23.27;;;13.90;;
32242;SDS011;18731;42.830;24.390;2023-01-16T17:39:24;26.75;;;14.55;;
32242;SDS011;18731;42.830;24.390;2023-01-16T17:41:50;35.30;;;18.80;;
32242;SDS011;18731;42.830;24.390;2023-01-16T17:44:18;24.73;;;13.50;;
32242;SDS011;18731;42.830;24.390;2023-01-16T17:47:04;45.20;;;22.38;;
32242;SDS011;18731;42.830;24.390;2023-01-16T17:49:30;20.38;;;10.65;;
32242;SDS011;18731;42.830;24.390;2023-01-16T17:51:56;32.35;;;17.45;;
32242;SDS011;18731;42.830;24.390;2023-01-16T17:54:22;40.78;;;20.58;;
32242;SDS011;18731;42.830;24.390;2023-01-16T17:57:07;50.85;;;24.45;;
32242;SDS011;18731;42.830;24.390;2023-01-16T17:59:32;15.50;;;9.07;;
32242;SDS011;18731;42.830;24.390;2023-01-16T18:01:58;18.83;;;10.30;;
32242;SDS011;18731;42.830;24.390;2023-01-16T18:04:23;34.47;;;17.05;;
32242;SDS011;18731;42.830;24.390;2023-01-16T18:06:49;80.43;;;33.92;;
32242;SDS011;18731;42.830;24.390;2023-01-16T18:09:14;31.67;;;14.10;;
32242;SDS011;18731;42.830;24.390;2023-01-16T18:11:41;53.20;;;23.35;;
32242;SDS011;18731;42.830;24.390;2023-01-16T18:14:26;15.18;;;8.38;;
32242;SDS011;18731;42.830;24.390;2023-01-16T18:17:12;49.50;;;23.00;;
32242;SDS011;18731;42.830;24.390;2023-01-16T18:22:14;20.00;;;9.73;;
32242;SDS011;18731;42.830;24.390;2023-01-16T18:24:41;23.02;;;13.18;;
32242;SDS011;18731;42.830;24.390;2023-01-16T18:27:09;13.30;;;8.18;;
32242;SDS011;18731;42.830;24.390;2023-01-16T18:29:37;29.00;;;14.82;;
32242;SDS011;18731;42.830;24.390;2023-01-16T18:32:03;21.33;;;12.50;;
32242;SDS011;18731;42.830;24.390;2023-01-16T18:34:49;12.40;;;7.90;;
32242;SDS011;18731;42.830;24.390;2023-01-16T18:37:19;15.50;;;9.43;;
32242;SDS011;18731;42.830;24.390;2023-01-16T18:39:46;11.35;;;7.78;;
32242;SDS011;18731;42.830;24.390;2023-01-16T18:42:30;11.38;;;6.80;;
32242;SDS011;18731;42.830;24.390;2023-01-16T18:45:14;12.02;;;6.60;;
32242;SDS011;18731;42.830;24.390;2023-01-16T18:47:59;13.50;;;7.50;;
32242;SDS011;18731;42.830;24.390;2023-01-16T18:50:43;12.90;;;7.65;;
32242;SDS011;18731;42.830;24.390;2023-01-16T18:53:29;17.02;;;9.35;;
32242;SDS011;18731;42.830;24.390;2023-01-16T18:56:34;15.82;;;8.52;;
32242;SDS011;18731;42.830;24.390;2023-01-16T18:59:22;12.88;;;8.15;;
32242;SDS011;18731;42.830;24.390;2023-01-16T19:04:44;15.70;;;9.35;;
32242;SDS011;18731;42.830;24.390;2023-01-16T19:07:12;12.70;;;8.43;;
32242;SDS011;18731;42.830;24.390;2023-01-16T19:09:45;25.23;;;14.23;;
32242;SDS011;18731;42.830;24.390;2023-01-16T19:12:12;10.23;;;6.03;;
32242;SDS011;18731;42.830;24.390;2023-01-16T19:14:39;14.82;;;8.55;;
32242;SDS011;18731;42.830;24.390;2023-01-16T19:17:06;10.13;;;6.15;;
32242;SDS011;18731;42.830;24.390;2023-01-16T19:19:32;10.77;;;6.95;;
32242;SDS011;18731;42.830;24.390;2023-01-16T19:21:58;10.07;;;5.57;;
32242;SDS011;18731;42.830;24.390;2023-01-16T19:24:24;8.88;;;5.22;;
32242;SDS011;18731;42.830;24.390;2023-01-16T19:26:53;12.55;;;5.90;;
32242;SDS011;18731;42.830;24.390;2023-01-16T19:29:20;9.60;;;6.10;;
32242;SDS011;18731;42.830;24.390;2023-01-16T19:31:46;8.80;;;5.38;;
32242;SDS011;18731;42.830;24.390;2023-01-16T19:34:12;8.13;;;5.05;;
32242;SDS011;18731;42.830;24.390;2023-01-16T19:36:38;16.30;;;7.85;;
32242;SDS011;18731;42.830;24.390;2023-01-16T19:39:05;16.10;;;9.43;;
32242;SDS011;18731;42.830;24.390;2023-01-16T19:41:32;10.48;;;6.00;;
32242;SDS011;18731;42.830;24.390;2023-01-16T19:44:17;10.90;;;6.07;;
32242;SDS011;18731;42.830;24.390;2023-01-16T19:47:02;6.32;;;4.25;;
32242;SDS011;18731;42.830;24.390;2023-01-16T19:49:28;9.15;;;5.45;;
32242;SDS011;18731;42.830;24.390;2023-01-16T19:51:54;15.18;;;9.60;;
32242;SDS011;18731;42.830;24.390;2023-01-16T19:54:21;17.67;;;9.85;;
32242;SDS011;18731;42.830;24.390;2023-01-16T19:56:48;13.15;;;8.52;;
32242;SDS011;18731;42.830;24.390;2023-01-16T19:59:13;11.10;;;5.78;;
32242;SDS011;18731;42.830;24.390;2023-01-16T20:01:55;24.58;;;12.40;;
32242;SDS011;18731;42.830;24.390;2023-01-16T20:04:26;8.50;;;5.60;;
32242;SDS011;18731;42.830;24.390;2023-01-16T20:06:55;8.73;;;5.55;;
32242;SDS011;18731;42.830;24.390;2023-01-16T20:09:20;15.38;;;9.32;;
32242;SDS011;18731;42.830;24.390;2023-01-16T20:11:47;18.23;;;10.43;;
32242;SDS011;18731;42.830;24.390;2023-01-16T20:14:31;10.82;;;5.22;;
32242;SDS011;18731;42.830;24.390;2023-01-16T20:16:57;21.80;;;12.02;;
32242;SDS011;18731;42.830;24.390;2023-01-16T20:19:23;17.40;;;9.02;;
32242;SDS011;18731;42.830;24.390;2023-01-16T20:21:51;11.65;;;7.40;;
32242;SDS011;18731;42.830;24.390;2023-01-16T20:24:18;11.48;;;6.20;;
32242;SDS011;18731;42.830;24.390;2023-01-16T20:26:46;16.95;;;6.45;;